Home   Weather   32°19'N, 34°51'E   Past weeks
Flag for Israel

Past Weather in 32°19'N, 34°51'E, Israel — Yesterday and Last 2 Weeks

Currently: 84 °F. Passing clouds. (Weather station: Ben Gurion International Airport, Israel). See more current weather

Past Weather in 32°19'N, 34°51'E — Graph

°F

32°19'N, 34°51'E Temperature Yesterday

Maximum temperature yesterday: 95 °F (at 2:50 pm)
Minimum temperature yesterday: 81 °F (at 2:50 am)
Average temperature yesterday: 86 °F

High & Low Weather Summary for the Past Weeks

 TemperatureHumidityPressure
High99 °F (Jul 11, 1:50 pm)89% (Jul 16, 2:20 am)29.77 "Hg (Jul 16, 2:20 am)
Low75 °F (Jul 12, 5:20 am)27% (Jul 12, 12:50 pm)29.59 "Hg (Jul 20, 3:50 am)
Average86 °F67%29.69 "Hg
* Reported Jul 9 9:20 pm — Jul 24 9:50 pm, 32°19'N, 34°51'E. Weather by CustomWeather, © 2024

Note: Actual official high and low records may vary slightly from our data, if they occured in-between our weather recording intervals... More about our weather records

32°19'N, 34°51'E Weather History for the Previous 24 Hours

Scroll right to see more
 ConditionsComfort  
Time TempWeatherWind HumidityBarometerVisibility
9:50 pm
Wed, Jul 24
84 °FPassing clouds.7 mph74%29.65 "HgN/A
9:20 pm84 °FPassing clouds.7 mph74%29.65 "HgN/A
8:50 pm84 °FPassing clouds.7 mph74%29.65 "HgN/A
8:20 pm84 °FPassing clouds.7 mph74%29.65 "HgN/A
7:50 pm86 °FPassing clouds.7 mph70%29.65 "HgN/A
7:20 pm86 °FPassing clouds.8 mph70%29.65 "HgN/A
6:50 pm88 °FPassing clouds.9 mph62%29.62 "HgN/A
6:20 pm88 °FPassing clouds.9 mph62%29.62 "HgN/A
5:50 pm88 °FPassing clouds.9 mph66%29.62 "HgN/A
5:20 pm90 °FPassing clouds.9 mph59%29.62 "HgN/A
4:50 pm90 °FPassing clouds.12 mph59%29.62 "HgN/A
4:20 pm91 °FPassing clouds.9 mph56%29.62 "HgN/A
3:50 pm90 °FPassing clouds.13 mph59%29.62 "HgN/A
3:20 pm90 °FPassing clouds.14 mph59%29.62 "HgN/A
2:50 pm90 °FPassing clouds.16 mph55%29.65 "HgN/A
2:20 pm91 °FPassing clouds.14 mph49%29.65 "HgN/A
1:50 pm90 °FPassing clouds.15 mph55%29.65 "HgN/A
1:20 pm91 °FPassing clouds.14 mph56%29.65 "HgN/A
12:50 pm90 °FPassing clouds.13 mph55%29.65 "HgN/A
12:20 pm91 °FPassing clouds.13 mph56%29.65 "HgN/A
11:20 am90 °FPassing clouds.12 mph59%29.65 "HgN/A
10:50 am90 °FScattered clouds.10 mph59%29.65 "HgN/A
10:20 am90 °FScattered clouds.10 mph55%29.65 "HgN/A
9:50 am88 °FPartly sunny.9 mph59%29.68 "HgN/A
9:20 am84 °FPartly sunny.9 mph70%29.65 "HgN/A
8:50 am84 °FPassing clouds.9 mph70%29.68 "HgN/A
8:20 am82 °FPassing clouds.8 mph70%29.68 "HgN/A
7:50 am82 °FPassing clouds.8 mph70%29.68 "HgN/A
7:20 am81 °FPassing clouds.8 mph74%29.68 "HgN/A
6:50 am79 °FPassing clouds.8 mph79%29.68 "HgN/A
6:20 am79 °FPassing clouds.8 mph79%29.68 "HgN/A
5:50 am79 °FPassing clouds.7 mph79%29.68 "HgN/A
5:20 am79 °FPassing clouds.6 mph79%29.68 "HgN/A
4:50 am79 °FPassing clouds.6 mph79%29.68 "HgN/A
4:20 am79 °FPassing clouds.6 mph79%29.65 "HgN/A
3:50 am79 °FClear.7 mph79%29.65 "Hg10 mi
3:20 am79 °FClear.6 mph84%29.65 "Hg10 mi
2:50 am79 °FClear.8 mph84%29.65 "Hg10 mi
2:20 am81 °FClear.7 mph79%29.68 "Hg10 mi
1:50 am81 °FClear.7 mph79%29.68 "Hg10 mi
1:20 am81 °FClear.5 mph84%29.68 "Hg10 mi
12:50 am81 °FClear.6 mph84%29.68 "Hg10 mi
12:20 am81 °FClear.6 mph84%29.68 "Hg10 mi
11:50 pm
Tue, Jul 23
82 °FClear.5 mph74%29.68 "Hg10 mi
11:20 pm82 °FClear.3 mph74%29.71 "Hg10 mi
10:50 pm82 °FClear.1 mph74%29.71 "Hg10 mi
10:20 pm84 °FClear.2 mph66%29.71 "Hg10 mi
Weather by CustomWeather, © 2024

See weather overview